Time;durP1;ratioP1;P1;durP2;ratioP2;P2;SDS_P1;SDS_P2;PMS_P1;PMS_P2;Temp;Humidity;BMP_temperature;BMP_pressure;BME280_temperature;BME280_humidity;BME280_pressure;Samples;Min_cycle;Max_cycle;Signal;HPM_P1;HPM_P2
2022/04/09 00:01:53;;;;;;;61.40;27.05;;;;;;;2.96;76.54;98592.68;1762835;79;25694;-70
2022/04/09 00:04:21;;;;;;;68.42;27.67;;;;;;;2.97;76.61;98597.51;1765445;79;98459;-70
2022/04/09 00:06:47;;;;;;;68.97;28.57;;;;;;;2.97;76.66;98594.40;1765609;79;26151;-70
2022/04/09 00:09:14;;;;;;;56.77;21.70;;;;;;;2.97;76.73;98602.80;1762150;79;98711;-69
2022/04/09 00:11:41;;;;;;;59.23;24.40;;;;;;;2.98;76.90;98592.61;1771740;79;25823;-70
2022/04/09 00:14:08;;;;;;;58.73;24.77;;;;;;;2.99;76.95;98594.33;1761718;79;25748;-70
2022/04/09 00:16:35;;;;;;;46.08;22.15;;;;;;;2.98;77.01;98589.97;1763931;79;98446;-70
2022/04/09 00:19:01;;;;;;;54.18;21.77;;;;;;;2.98;77.13;98596.12;1762136;79;25761;-70
2022/04/09 00:21:29;;;;;;;51.10;21.23;;;;;;;3.02;77.23;98599.02;1756986;79;98785;-68
2022/04/09 00:23:57;;;;;;;49.53;21.40;;;;;;;3.04;77.30;98598.95;1761021;79;25761;-70
2022/04/09 00:26:24;;;;;;;50.35;21.10;;;;;;;3.05;77.36;98601.53;1768942;79;25802;-69
2022/04/09 00:28:50;;;;;;;59.48;23.00;;;;;;;3.05;77.40;98608.61;1764037;79;98627;-70
2022/04/09 00:31:16;;;;;;;48.87;21.77;;;;;;;3.06;77.51;98609.00;1766150;79;27202;-69
2022/04/09 00:33:42;;;;;;;45.58;21.45;;;;;;;3.07;77.55;98616.02;1766013;79;98497;-70
2022/04/09 00:36:07;;;;;;;48.10;22.48;;;;;;;3.08;77.62;98608.47;1765080;79;26639;-69
2022/04/09 00:38:33;;;;;;;48.95;21.97;;;;;;;3.10;77.65;98606.14;1753629;80;26287;-70
2022/04/09 00:40:59;;;;;;;49.18;20.48;;;;;;;3.12;77.70;98606.08;1748186;80;98524;-69
2022/04/09 00:43:27;;;;;;;45.65;20.08;;;;;;;3.13;77.77;98597.20;1751596;80;25846;-70
2022/04/09 00:45:55;;;;;;;50.80;20.48;;;;;;;3.13;77.83;98601.17;1762133;80;97691;-69
2022/04/09 00:48:22;;;;;;;33.70;16.42;;;;;;;3.14;77.89;98613.02;1754901;80;25751;-70
2022/04/09 00:50:48;;;;;;;36.77;16.77;;;;;;;3.14;78.00;98607.72;1753942;79;25735;-70
2022/04/09 00:53:16;;;;;;;42.50;17.67;;;;;;;3.13;78.18;98612.63;1756694;80;98316;-69
2022/04/09 00:58:30;;;;;;;44.18;18.45;;;;;;;3.09;78.41;98618.12;1751582;80;98700;-70
2022/04/09 01:00:56;;;;;;;45.23;17.25;;;;;;;3.09;78.54;98612.37;1721907;81;25778;-70
2022/04/09 01:03:22;;;;;;;44.95;17.75;;;;;;;3.08;78.62;98616.41;1720229;81;98797;-70
2022/04/09 01:05:49;;;;;;;40.38;17.55;;;;;;;3.08;78.69;98621.70;1718331;81;27502;-70
2022/04/09 01:08:18;;;;;;;50.65;20.32;;;;;;;3.09;78.80;98631.36;1701541;82;25874;-70
2022/04/09 01:10:51;;;;;;;55.45;22.90;;;;;;;3.09;78.73;98634.86;1745160;80;98556;-69
2022/04/09 01:13:22;;;;;;;61.18;21.00;;;;;;;3.12;78.71;98639.16;1737621;80;27858;-71
2022/04/09 01:15:50;;;;;;;43.75;18.07;;;;;;;3.14;78.65;98643.45;1721389;81;97877;-70
2022/04/09 01:18:18;;;;;;;40.25;16.85;;;;;;;3.15;78.67;98645.17;1724505;81;27529;-70
2022/04/09 01:20:44;;;;;;;52.23;19.70;;;;;;;3.15;78.62;98644.31;1700503;82;26766;-70
2022/04/09 01:23:12;;;;;;;46.70;18.65;;;;;;;3.15;78.59;98648.29;1725926;81;98357;-70
2022/04/09 01:25:41;;;;;;;44.03;16.73;;;;;;;3.15;78.59;98654.91;1729875;81;25841;-72
2022/04/09 01:28:07;;;;;;;58.80;18.25;;;;;;;3.12;78.65;98655.91;1721251;81;98592;-70
2022/04/09 01:30:33;;;;;;;48.90;18.60;;;;;;;3.13;78.64;98660.73;1720981;81;28298;-70
2022/04/09 01:33:01;;;;;;;48.95;17.70;;;;;;;3.14;78.61;98660.66;1719291;81;98684;-69
2022/04/09 01:35:28;;;;;;;33.83;14.93;;;;;;;3.15;78.66;98665.49;1712615;82;26442;-70
2022/04/09 01:37:56;;;;;;;36.05;14.98;;;;;;;3.14;78.69;98668.61;1755739;79;26411;-70
2022/04/09 01:40:24;;;;;;;33.58;13.15;;;;;;;3.13;78.69;98672.64;1759110;79;98572;-70
2022/04/09 01:42:50;;;;;;;30.75;14.73;;;;;;;3.12;78.64;98680.19;1763520;79;27458;-70
2022/04/09 01:45:18;;;;;;;33.95;14.87;;;;;;;3.13;78.63;98685.88;1762434;79;98636;-70
2022/04/09 01:47:46;;;;;;;51.18;16.95;;;;;;;3.13;78.56;98680.58;1769241;79;25823;-70
2022/04/09 01:50:12;;;;;;;35.33;14.55;;;;;;;3.13;78.52;98686.73;1758848;79;25817;-70
2022/04/09 01:52:40;;;;;;;36.75;15.32;;;;;;;3.14;78.52;98684.95;1773975;79;97811;-69
2022/04/09 01:55:08;;;;;;;34.73;13.65;;;;;;;3.15;78.52;98686.67;1764661;79;27404;-71
2022/04/09 01:57:37;;;;;;;34.03;13.20;;;;;;;3.15;78.47;98678.27;1759288;79;98614;-70
2022/04/09 02:00:10;;;;;;;39.35;12.90;;;;;;;3.18;78.48;98685.21;1763652;79;25800;-70
2022/04/09 02:02:37;;;;;;;20.75;11.20;;;;;;;3.19;78.52;98696.19;1765715;79;26982;-70
2022/04/09 02:05:06;;;;;;;22.90;11.00;;;;;;;3.20;78.57;98700.56;1763287;79;98816;-70
2022/04/09 02:07:32;;;;;;;34.55;13.20;;;;;;;3.20;78.69;98701.88;1762909;79;27523;-70
2022/04/09 02:09:59;;;;;;;28.98;12.10;;;;;;;3.19;78.65;98704.13;1762855;79;98849;-70
2022/04/09 02:12:25;;;;;;;24.55;11.75;;;;;;;3.20;78.68;98705.86;1765471;79;26120;-69
2022/04/09 02:14:53;;;;;;;26.90;12.00;;;;;;;3.21;78.68;98706.25;1763861;79;98818;-69
2022/04/09 02:17:19;;;;;;;20.70;10.10;;;;;;;3.19;78.70;98708.97;1760716;79;26031;-70
2022/04/09 02:19:44;;;;;;;20.57;10.50;;;;;;;3.20;78.73;98713.80;1769817;79;28292;-69
2022/04/09 02:22:11;;;;;;;24.43;8.90;;;;;;;3.21;78.78;98713.73;1760358;79;98604;-69
2022/04/09 02:24:37;;;;;;;19.05;9.18;;;;;;;3.21;78.71;98724.31;1765214;79;25786;-69
2022/04/09 02:27:04;;;;;;;24.30;9.80;;;;;;;3.23;78.74;98720.28;1767801;79;98628;-69
2022/04/09 02:29:30;;;;;;;23.45;8.70;;;;;;;3.24;78.70;98715.38;1765628;79;25871;-69
2022/04/09 02:32:02;;;;;;;24.50;9.25;;;;;;;3.27;78.73;98717.89;1762783;79;27414;-69
2022/04/09 02:34:31;;;;;;;27.10;10.50;;;;;;;3.27;78.83;98724.52;1761224;79;98507;-70
2022/04/09 02:36:57;;;;;;;19.82;7.95;;;;;;;3.29;78.74;98728.41;1773318;79;25780;-70
2022/04/09 02:39:24;;;;;;;17.98;7.42;;;;;;;3.28;78.71;98726.70;1766296;79;98432;-70
2022/04/09 02:41:53;;;;;;;20.70;8.58;;;;;;;3.30;78.70;98728.34;1764828;79;26489;-70
2022/04/09 02:44:19;;;;;;;21.87;10.10;;;;;;;3.32;78.63;98734.44;1762577;79;27518;-70
2022/04/09 02:46:48;;;;;;;18.00;9.23;;;;;;;3.32;78.57;98726.48;1767645;79;98530;-69
2022/04/09 02:49:16;;;;;;;23.77;9.48;;;;;;;3.32;78.48;98731.78;1761939;79;25772;-70
2022/04/09 02:51:43;;;;;;;15.35;8.28;;;;;;;3.30;78.53;98738.94;1766554;79;98286;-69
2022/04/09 02:54:15;;;;;;;22.30;9.55;;;;;;;3.30;78.62;98734.97;1762886;79;25865;-69
2022/04/09 02:56:38;;;;;;;19.12;8.98;;;;;;;3.29;78.62;98733.25;1767114;79;27476;-70
2022/04/09 02:59:05;;;;;;;18.02;8.75;;;;;;;3.31;78.60;98743.77;1769117;79;97424;-69
2022/04/09 03:01:31;;;;;;;20.43;8.80;;;;;;;3.31;78.58;98749.92;1763385;79;25733;-70
2022/04/09 03:04:00;;;;;;;19.15;7.10;;;;;;;3.31;78.58;98745.09;1762577;79;98258;-71
2022/04/09 03:06:26;;;;;;;29.12;7.83;;;;;;;3.32;78.58;98745.48;1765076;79;25736;-70
2022/04/09 03:08:53;;;;;;;21.50;7.83;;;;;;;3.33;78.61;98745.89;1764500;79;98656;-68
2022/04/09 03:11:21;;;;;;;13.53;6.47;;;;;;;3.32;78.60;98743.70;1762841;79;25822;-69
2022/04/09 03:13:47;;;;;;;19.50;8.48;;;;;;;3.31;78.66;98757.01;1768765;79;25776;-69
2022/04/09 03:16:13;;;;;;;18.60;7.95;;;;;;;3.27;78.54;98760.25;1755129;79;98717;-69
2022/04/09 03:18:39;;;;;;;23.67;8.10;;;;;;;3.24;78.45;98753.77;1756780;79;25868;-69
2022/04/09 03:21:04;;;;;;;22.52;8.08;;;;;;;3.24;78.43;98760.39;1764592;79;98524;-69
2022/04/09 03:23:32;;;;;;;20.37;8.55;;;;;;;3.22;78.44;98773.69;1766671;79;33696;-69
2022/04/09 03:25:58;;;;;;;16.87;8.15;;;;;;;3.20;78.37;98781.30;1731242;81;25787;-70
2022/04/09 03:28:24;;;;;;;21.20;8.45;;;;;;;3.20;78.41;98780.84;1694909;82;98411;-70
2022/04/09 03:30:50;;;;;;;19.45;8.15;;;;;;;3.17;78.43;98784.95;1765248;79;25769;-70
2022/04/09 03:33:17;;;;;;;18.73;7.72;;;;;;;3.15;78.40;98796.52;1771838;79;98629;-70
2022/04/09 03:35:47;;;;;;;21.07;7.78;;;;;;;3.12;78.40;98800.62;1760613;79;26028;-69
2022/04/09 03:38:13;;;;;;;25.05;9.20;;;;;;;3.10;78.45;98799.37;1769055;79;25741;-71
2022/04/09 03:40:41;;;;;;;15.53;7.92;;;;;;;3.09;78.46;98791.49;1755932;79;98254;-69
2022/04/09 03:43:08;;;;;;;16.77;9.15;;;;;;;3.06;78.44;98795.13;1761956;79;25274;-70
2022/04/09 03:45:33;;;;;;;26.15;9.80;;;;;;;3.04;78.45;98796.13;1758389;79;98494;-71
2022/04/09 03:48:00;;;;;;;16.12;7.53;;;;;;;3.02;78.46;98808.56;1763243;79;25963;-71
2022/04/09 03:50:27;;;;;;;21.07;8.73;;;;;;;3.00;78.53;98809.09;1770285;79;25714;-70
2022/04/09 03:52:57;;;;;;;15.25;8.43;;;;;;;2.97;78.53;98811.39;1761478;79;98302;-70
2022/04/09 03:55:22;;;;;;;18.40;7.83;;;;;;;2.97;78.57;98814.05;1766722;79;25720;-70
2022/04/09 03:57:48;;;;;;;17.20;8.50;;;;;;;2.92;78.56;98819.98;1766453;79;98408;-69
2022/04/09 04:00:18;;;;;;;20.97;8.78;;;;;;;2.89;78.59;98827.59;1761382;79;25831;-70
2022/04/09 04:02:45;;;;;;;16.07;8.90;;;;;;;2.85;78.61;98820.70;1758349;79;26291;-70
2022/04/09 04:05:12;;;;;;;19.32;8.20;;;;;;;2.82;78.62;98827.45;1719927;80;98546;-69
2022/04/09 04:07:46;;;;;;;19.37;9.23;;;;;;;2.79;78.71;98834.19;1760358;79;25851;-70
2022/04/09 04:10:14;;;;;;;16.73;7.80;;;;;;;2.77;78.70;98833.38;1766881;79;98335;-71
2022/04/09 04:12:41;;;;;;;19.45;9.10;;;;;;;2.75;78.73;98835.23;1773249;79;26066;-70
2022/04/09 04:15:09;;;;;;;18.67;8.45;;;;;;;2.72;78.78;98837.14;1759642;79;98616;-70
2022/04/09 04:17:40;;;;;;;17.42;9.05;;;;;;;2.70;78.85;98842.49;1759135;79;25820;-70
2022/04/09 04:20:09;;;;;;;24.23;7.42;;;;;;;2.70;78.85;98842.49;1759093;79;26093;-70
2022/04/09 04:22:36;;;;;;;21.95;8.10;;;;;;;2.67;78.94;98851.88;1766186;79;98449;-71
2022/04/09 04:25:04;;;;;;;19.80;7.85;;;;;;;2.65;78.94;98855.50;1770170;79;25818;-72
2022/04/09 04:27:31;;;;;;;17.48;7.75;;;;;;;2.64;78.97;98855.97;1765519;79;98747;-70
2022/04/09 04:30:03;;;;;;;13.00;6.60;;;;;;;2.62;79.05;98863.09;1768389;79;25810;-69
2022/04/09 04:32:29;;;;;;;22.45;8.05;;;;;;;2.64;79.19;98869.65;1766389;79;25756;-71
2022/04/09 04:34:58;;;;;;;17.87;7.08;;;;;;;2.64;79.18;98873.16;1759883;79;98466;-70
2022/04/09 04:37:24;;;;;;;18.00;9.20;;;;;;;2.65;79.30;98884.14;1766884;79;25805;-68
2022/04/09 04:39:53;;;;;;;19.35;8.45;;;;;;;2.68;79.29;98881.83;1756149;79;98259;-70
2022/04/09 04:42:21;;;;;;;23.90;9.38;;;;;;;2.68;79.31;98885.34;1714898;81;25894;-70
2022/04/09 04:45:11;;;;;;;17.07;6.62;;;;;;;2.68;79.34;98893.27;1756665;80;98602;-69
2022/04/09 04:47:46;;;;;;;21.52;8.53;;;;;;;2.71;79.51;98900.23;1761594;80;27492;-70
2022/04/09 04:50:14;;;;;;;16.30;7.10;;;;;;;2.71;79.52;98898.45;1736917;81;26084;-70
2022/04/09 04:52:40;;;;;;;18.02;7.30;;;;;;;2.71;79.65;98902.41;1738968;81;98376;-70
2022/04/09 04:55:09;;;;;;;24.18;8.88;;;;;;;2.71;79.62;98905.06;1737272;81;25720;-70
2022/04/09 04:57:47;;;;;;;14.45;7.45;;;;;;;2.73;79.62;98909.83;1737747;81;98491;-70
2022/04/09 05:00:18;;;;;;;15.90;8.55;;;;;;;2.77;79.68;98903.95;1735692;81;26914;-70
2022/04/09 05:02:45;;;;;;;14.80;7.87;;;;;;;2.77;79.69;98919.36;1747344;80;25876;-70
2022/04/09 05:05:11;;;;;;;14.23;7.05;;;;;;;2.80;79.70;98919.25;1741103;80;98212;-69
2022/04/09 05:07:52;;;;;;;15.30;8.18;;;;;;;2.83;79.78;98928.39;1746383;80;25874;-69
2022/04/09 05:10:22;;;;;;;16.23;7.53;;;;;;;2.84;79.88;98935.41;1733998;81;98675;-70
2022/04/09 05:12:51;;;;;;;16.82;6.85;;;;;;;2.84;79.89;98936.73;1800922;78;27404;-70
2022/04/09 05:15:18;;;;;;;20.55;6.58;;;;;;;2.87;79.97;98945.00;1782151;78;98516;-69
2022/04/09 05:17:45;;;;;;;18.17;8.45;;;;;;;2.89;80.03;98948.45;1792427;78;25880;-70
2022/04/09 05:20:14;;;;;;;20.62;9.18;;;;;;;2.90;80.07;98941.78;1789190;78;27860;-70
2022/04/09 05:22:43;;;;;;;18.92;7.08;;;;;;;2.93;80.09;98953.56;1786841;79;97498;-70
2022/04/09 05:25:13;;;;;;;24.63;7.78;;;;;;;2.93;80.26;98958.86;1789282;79;27499;-69
2022/04/09 05:27:43;;;;;;;13.60;6.50;;;;;;;2.96;80.26;98954.36;1770590;79;98362;-70
2022/04/09 05:30:09;;;;;;;17.70;6.60;;;;;;;2.98;80.30;98953.38;1751330;79;26287;-70
2022/04/09 05:32:39;;;;;;;13.80;6.50;;;;;;;3.03;80.34;98969.94;1752897;79;27745;-70
2022/04/09 05:35:07;;;;;;;16.12;6.30;;;;;;;3.05;80.45;98969.42;1750258;79;98298;-69
2022/04/09 05:37:38;;;;;;;16.90;6.20;;;;;;;3.09;80.44;98979.42;1754669;79;27381;-72
2022/04/09 05:40:07;;;;;;;17.65;5.78;;;;;;;3.11;80.44;98969.64;1753567;80;98338;-69
2022/04/09 05:42:35;;;;;;;14.40;5.53;;;;;;;3.18;80.47;98983.03;1756159;79;25939;-71
2022/04/09 05:45:03;;;;;;;10.35;5.37;;;;;;;3.23;80.47;98988.55;1743663;80;98617;-70
2022/04/09 05:47:30;;;;;;;22.52;4.95;;;;;;;3.29;80.41;98995.84;1747807;80;26228;-69
2022/04/09 05:49:59;;;;;;;10.32;4.92;;;;;;;3.34;80.36;99004.00;1741246;80;25733;-71
2022/04/09 05:52:27;;;;;;;14.00;4.95;;;;;;;3.38;80.33;99017.98;1747714;80;98353;-70
2022/04/09 05:54:53;;;;;;;11.73;4.95;;;;;;;3.41;80.23;99025.80;1746081;80;26557;-71
2022/04/09 05:57:19;;;;;;;12.63;4.72;;;;;;;3.44;80.21;99030.98;1745693;80;98854;-70
2022/04/09 05:59:45;;;;;;;10.10;4.37;;;;;;;3.46;80.12;99014.56;1753032;80;25847;-71
2022/04/09 06:02:14;;;;;;;16.70;4.90;;;;;;;3.48;80.01;99018.01;1750495;80;27444;-71
2022/04/09 06:04:41;;;;;;;14.63;4.85;;;;;;;3.51;80.02;99024.50;1747169;80;98462;-70
2022/04/09 06:07:09;;;;;;;16.95;4.87;;;;;;;3.55;79.96;99030.08;1748487;80;25710;-70
2022/04/09 06:09:36;;;;;;;17.23;4.62;;;;;;;3.58;79.87;99040.09;1742329;80;98614;-69
2022/04/09 06:12:05;;;;;;;14.87;4.40;;;;;;;3.59;79.84;99035.66;1751969;80;25873;-70
2022/04/09 06:14:34;;;;;;;11.55;4.45;;;;;;;3.59;79.85;99036.52;1744628;80;27549;-70
2022/04/09 06:17:00;;;;;;;12.50;5.45;;;;;;;3.59;79.78;99044.92;1746259;80;98947;-69
2022/04/09 06:19:29;;;;;;;14.07;5.12;;;;;;;3.57;79.69;99040.16;1750679;80;25765;-71
2022/04/09 06:21:56;;;;;;;21.02;5.42;;;;;;;3.61;79.60;99062.95;1739949;80;98415;-71
2022/04/09 06:24:23;;;;;;;12.05;4.95;;;;;;;3.59;79.50;99055.06;1746341;80;26422;-70
2022/04/09 06:26:50;;;;;;;17.12;6.67;;;;;;;3.57;79.42;99062.20;1747492;80;27460;-70
2022/04/09 06:29:18;;;;;;;17.15;5.10;;;;;;;3.59;79.43;99069.63;1747498;80;98596;-70
2022/04/09 06:31:47;;;;;;;8.55;5.35;;;;;;;3.62;79.32;99079.24;1753097;80;25809;-70
2022/04/09 06:34:16;;;;;;;13.62;5.42;;;;;;;3.67;79.31;99066.67;1681991;83;98135;-71
2022/04/09 06:36:44;;;;;;;11.78;5.42;;;;;;;3.73;79.18;99082.32;1700532;82;25702;-71
2022/04/09 06:39:10;;;;;;;19.92;4.55;;;;;;;3.75;79.11;99074.31;1690737;83;99192;-70
2022/04/09 06:41:36;;;;;;;15.28;5.28;;;;;;;3.81;79.21;99082.88;1689314;83;25931;-71
2022/04/09 06:44:06;;;;;;;10.28;4.22;;;;;;;3.81;78.94;99075.39;1719165;80;25954;-70
2022/04/09 06:46:33;;;;;;;13.20;4.43;;;;;;;3.85;78.84;99083.15;1751194;80;98287;-70
2022/04/09 06:49:01;;;;;;;10.72;4.45;;;;;;;3.87;78.62;99097.66;1748697;80;25564;-71
2022/04/09 06:51:31;;;;;;;9.93;3.75;;;;;;;3.83;78.43;99096.06;1753347;81;98554;-71
2022/04/09 06:54:01;;;;;;;8.98;3.55;;;;;;;3.85;78.51;99086.27;1734353;81;25855;-71
2022/04/09 06:56:28;;;;;;;12.30;4.25;;;;;;;3.87;78.51;99085.73;1728046;81;25718;-71
2022/04/09 06:58:56;;;;;;;9.93;4.17;;;;;;;3.93;78.39;99089.45;1728799;81;98837;-72
2022/04/09 07:01:26;;;;;;;7.67;3.90;;;;;;;4.01;78.26;99101.94;1730598;81;26571;-71
2022/04/09 07:03:52;;;;;;;16.23;4.62;;;;;;;4.10;77.95;99105.53;1782458;79;97937;-71
2022/04/09 07:06:18;;;;;;;16.85;4.05;;;;;;;4.11;77.88;99111.23;1780893;79;25822;-71
2022/04/09 07:08:45;;;;;;;9.18;3.60;;;;;;;4.10;77.66;99108.18;1750729;80;25748;-71
2022/04/09 07:11:13;;;;;;;16.45;4.42;;;;;;;4.21;77.84;99123.64;1727195;80;97372;-71
2022/04/09 07:13:41;;;;;;;16.30;4.17;;;;;;;4.28;77.42;99119.81;1717732;81;25896;-71
2022/04/09 07:16:07;;;;;;;11.83;3.90;;;;;;;4.32;77.41;99118.75;1673198;83;98295;-71
2022/04/09 07:18:33;;;;;;;9.63;4.50;;;;;;;4.34;76.58;99131.95;1710587;81;27621;-71
2022/04/09 07:21:01;;;;;;;7.87;4.60;;;;;;;4.31;76.69;99121.00;1686768;82;98457;-69
2022/04/09 07:23:28;;;;;;;13.30;4.12;;;;;;;4.32;76.52;99123.20;1688193;82;25821;-70
2022/04/09 07:25:57;;;;;;;12.37;3.85;;;;;;;4.32;76.49;99141.30;1708628;81;26273;-71
2022/04/09 07:28:24;;;;;;;10.45;3.37;;;;;;;4.32;76.25;99136.45;1684187;82;98318;-71
2022/04/09 07:30:50;;;;;;;15.18;3.90;;;;;;;4.38;76.37;99156.09;1686691;82;25779;-70
2022/04/09 07:33:16;;;;;;;5.87;2.87;;;;;;;4.45;76.11;99177.00;1682913;82;98547;-69
2022/04/09 07:35:42;;;;;;;7.72;3.80;;;;;;;4.47;75.98;99153.05;1716444;81;27967;-71
2022/04/09 07:38:08;;;;;;;15.32;3.85;;;;;;;4.47;75.54;99160.55;1718797;82;25799;-71
2022/04/09 07:40:36;;;;;;;9.15;3.05;;;;;;;4.49;75.31;99164.47;1738730;81;98419;-70
2022/04/09 07:43:02;;;;;;;17.60;3.75;;;;;;;4.48;73.60;99170.70;1742815;80;25980;-69
2022/04/09 07:45:28;;;;;;;13.03;2.70;;;;;;;4.44;73.47;99189.00;1715480;81;98512;-70
2022/04/09 07:47:59;;;;;;;4.12;2.35;;;;;;;4.45;73.36;99186.74;1749420;80;26521;-70
2022/04/09 07:50:28;;;;;;;12.07;3.45;;;;;;;4.47;72.89;99192.39;1745455;80;25740;-71
2022/04/09 07:52:56;;;;;;;5.33;2.50;;;;;;;4.45;72.50;99195.56;1750466;80;98288;-71
2022/04/09 07:55:22;;;;;;;19.17;3.15;;;;;;;4.48;72.38;99210.03;1749416;81;26461;-70
2022/04/09 07:57:50;;;;;;;15.38;3.15;;;;;;;4.55;72.41;99209.31;1750106;80;98351;-72
2022/04/09 08:00:18;;;;;;;13.60;3.15;;;;;;;4.65;71.59;99218.61;1751937;80;26396;-70
2022/04/09 08:02:46;;;;;;;19.85;2.85;;;;;;;4.68;71.08;99225.13;1753674;81;26200;-72
2022/04/09 08:05:13;;;;;;;15.75;2.85;;;;;;;4.63;70.29;99233.73;1750424;80;98689;-72
2022/04/09 08:07:41;;;;;;;15.03;3.00;;;;;;;4.63;69.26;99233.73;1750743;80;27178;-69
2022/04/09 08:10:09;;;;;;;15.38;2.70;;;;;;;4.66;69.17;99255.30;1751070;80;98356;-71
2022/04/09 08:12:35;;;;;;;12.63;3.10;;;;;;;4.70;68.69;99245.83;1751444;80;25752;-69
2022/04/09 08:15:03;;;;;;;8.80;2.40;;;;;;;4.79;68.55;99250.75;1753511;80;98469;-70
2022/04/09 08:17:30;;;;;;;16.95;3.12;;;;;;;4.87;68.10;99261.91;1753217;80;29530;-72
2022/04/09 08:19:58;;;;;;;9.15;2.67;;;;;;;4.97;68.07;99269.02;1750765;80;27332;-67
2022/04/09 08:22:25;;;;;;;10.00;2.80;;;;;;;5.07;67.28;99267.70;1744802;81;98297;-71
2022/04/09 08:24:51;;;;;;;9.05;2.15;;;;;;;5.20;67.41;99265.38;1753099;81;26511;-72
2022/04/09 08:27:16;;;;;;;9.48;2.80;;;;;;;5.26;66.70;99273.05;1754125;81;97560;-71
2022/04/09 08:29:42;;;;;;;9.48;2.60;;;;;;;5.25;66.47;99307.65;1755711;80;25834;-71
2022/04/09 08:32:08;;;;;;;7.45;2.33;;;;;;;5.15;65.13;99283.30;1752048;80;25414;-71
2022/04/09 08:34:35;;;;;;;11.70;2.45;;;;;;;5.26;65.50;99282.34;1753956;81;98314;-70
2022/04/09 08:37:08;;;;;;;7.12;1.90;;;;;;;5.32;64.48;99290.52;1756156;81;25814;-69
2022/04/09 08:39:34;;;;;;;6.12;2.00;;;;;;;5.33;63.00;99295.76;1751489;80;98467;-70
2022/04/09 08:42:04;;;;;;;7.30;2.47;;;;;;;5.34;64.02;99297.95;1755918;80;27533;-69
2022/04/09 08:44:36;;;;;;;14.03;2.17;;;;;;;5.37;63.05;99305.33;1754409;80;26202;-70
2022/04/09 08:47:02;;;;;;;7.33;2.47;;;;;;;5.51;62.26;99329.50;1754427;80;98501;-70
2022/04/09 08:49:33;;;;;;;9.25;1.85;;;;;;;5.60;62.67;99311.42;1748947;81;25751;-71
2022/04/09 08:52:06;;;;;;;3.17;1.77;;;;;;;5.61;61.65;99323.78;1754202;80;98106;-70
2022/04/09 08:54:37;;;;;;;10.23;2.25;;;;;;;5.65;61.42;99313.41;1728604;80;27568;-70
2022/04/09 08:57:08;;;;;;;8.53;2.27;;;;;;;5.66;61.84;99309.82;1750082;80;98622;-68
2022/04/09 08:59:35;;;;;;;14.07;2.02;;;;;;;5.72;61.31;99320.18;1751297;81;25919;-70
2022/04/09 09:02:08;;;;;;;5.42;1.45;;;;;;;5.70;60.36;99321.58;1750590;80;25803;-70
2022/04/09 09:04:35;;;;;;;7.37;1.77;;;;;;;5.67;60.22;99322.18;1747678;80;98258;-71
2022/04/09 09:07:23;;;;;;;5.58;2.15;;;;;;;5.70;60.98;99311.41;1750293;80;27391;-70
2022/04/09 09:09:53;;;;;;;9.13;2.20;;;;;;;5.84;61.00;99310.33;1749455;80;98719;-69
2022/04/09 09:12:31;;;;;;;9.35;1.72;;;;;;;6.00;59.88;99324.69;1748594;80;26394;-71
2022/04/09 09:15:06;;;;;;;3.55;1.60;;;;;;;5.96;59.29;99322.23;1751279;80;26667;-71
2022/04/09 09:17:34;;;;;;;10.00;3.45;;;;;;;5.93;59.12;99339.20;1752369;80;98018;-70
2022/04/09 09:20:00;;;;;;;7.12;1.60;;;;;;;5.96;58.81;99336.39;1750865;80;25721;-70
2022/04/09 09:22:47;;;;;;;9.03;1.70;;;;;;;5.98;58.89;99333.20;1750058;80;98192;-69
2022/04/09 09:25:13;;;;;;;7.62;1.65;;;;;;;6.02;59.16;99325.47;1751278;80;25857;-70
2022/04/09 09:27:40;;;;;;;12.73;2.00;;;;;;;6.16;59.30;99332.36;1749902;81;98488;-71
2022/04/09 09:30:18;;;;;;;6.95;1.42;;;;;;;6.25;58.76;99331.53;1754064;80;25714;-70
2022/04/09 09:32:46;;;;;;;10.03;1.98;;;;;;;6.36;58.40;99336.75;1749914;80;27396;-71
2022/04/09 09:35:13;;;;;;;11.38;2.33;;;;;;;6.40;58.10;99332.14;1750677;80;98438;-71
2022/04/09 09:37:41;;;;;;;6.05;2.00;;;;;;;6.42;57.62;99339.13;1741700;81;26508;-70
2022/04/09 09:40:10;;;;;;;11.85;1.92;;;;;;;6.53;58.02;99339.08;1753933;80;98109;-70
2022/04/09 09:42:39;;;;;;;5.87;1.98;;;;;;;6.56;57.52;99358.44;1753497;80;25727;-70
2022/04/09 09:45:12;;;;;;;5.05;2.10;;;;;;;6.53;57.37;99351.06;1759958;79;27432;-76
2022/04/09 09:47:56;;;;;;;4.60;1.92;;;;;;;6.57;57.96;99336.66;1790569;79;98406;-74
2022/04/09 09:50:42;;;;;;;9.85;2.92;;;;;;;6.62;56.79;99346.63;1791076;78;25801;-73
2022/04/09 09:53:08;;;;;;;10.85;2.67;;;;;;;6.60;56.63;99345.37;1788241;79;98400;-74
2022/04/09 09:55:43;;;;;;;7.45;1.60;;;;;;;6.61;55.83;99340.44;1792491;78;26507;-73
2022/04/09 09:58:18;;;;;;;7.55;1.45;;;;;;;6.67;55.53;99372.56;1785394;78;98156;-73
2022/04/09 10:00:44;;;;;;;5.62;1.42;;;;;;;6.78;55.03;99341.81;1790837;79;26166;-72
2022/04/09 10:03:17;;;;;;;5.75;1.45;;;;;;;6.89;54.21;99347.09;1796160;78;25884;-73
2022/04/09 10:05:41;;;;;;;7.72;1.90;;;;;;;6.91;53.17;99374.52;1767137;79;98075;-74
2022/04/09 10:08:10;;;;;;;9.78;1.52;;;;;;;6.93;53.49;99349.53;1793461;78;26476;-73
2022/04/09 10:10:39;;;;;;;7.55;1.30;;;;;;;6.99;54.26;99343.04;1790688;78;98088;-73
2022/04/09 10:13:06;;;;;;;5.67;1.67;;;;;;;7.12;54.30;99353.48;1793452;78;25753;-71
2022/04/09 10:15:37;;;;;;;12.95;2.40;;;;;;;7.15;52.78;99344.00;1785735;79;98423;-72
2022/04/09 10:18:06;;;;;;;9.88;1.60;;;;;;;7.15;52.90;99345.33;1769280;78;25810;-71
2022/04/09 10:20:37;;;;;;;8.63;2.40;;;;;;;7.23;52.64;99351.61;1789047;79;25706;-71
2022/04/09 10:23:06;;;;;;;8.38;1.85;;;;;;;7.39;52.05;99361.42;1763521;79;98151;-70
2022/04/09 10:25:43;;;;;;;5.67;1.70;;;;;;;7.52;53.85;99348.33;1770077;78;26216;-72
2022/04/09 10:28:13;;;;;;;4.28;1.80;;;;;;;7.65;53.49;99359.22;1787055;78;98142;-71
2022/04/09 10:30:41;;;;;;;7.55;1.57;;;;;;;7.68;52.85;99355.06;1769074;79;25808;-71
2022/04/09 10:33:30;;;;;;;5.00;1.10;;;;;;;7.61;51.77;99378.52;1790470;79;26153;-70
2022/04/09 10:36:04;;;;;;;5.30;1.60;;;;;;;7.49;51.57;99341.35;1785590;79;98427;-70
2022/04/09 10:38:33;;;;;;;5.78;1.37;;;;;;;7.40;50.83;99360.48;1753852;80;26555;-69
2022/04/09 10:41:08;;;;;;;2.87;1.35;;;;;;;7.46;49.76;99350.84;1746343;80;98251;-71
2022/04/09 10:43:39;;;;;;;7.95;1.72;;;;;;;7.43;49.30;99352.33;1734238;81;26407;-73
2022/04/09 10:46:15;;;;;;;6.97;1.62;;;;;;;7.40;49.25;99399.60;1742116;81;98450;-70
2022/04/09 10:48:44;;;;;;;4.25;1.65;;;;;;;7.53;49.18;99362.05;1753438;80;27497;-71
2022/04/09 10:51:15;;;;;;;;;;;;;;;7.66;49.08;99378.28;1759665;80;25761;-70
2022/04/09 10:53:53;;;;;;;8.73;1.37;;;;;;;7.79;49.24;99354.89;1754480;80;84197;-71
2022/04/09 10:56:27;;;;;;;6.00;2.27;;;;;;;8.05;49.67;99380.16;1755071;80;25899;-71
2022/04/09 10:59:17;;;;;;;7.78;1.75;;;;;;;8.13;50.12;99378.42;1754336;80;98219;-71
2022/04/09 11:01:51;;;;;;;16.00;1.60;;;;;;;8.32;48.84;99383.16;1752326;80;27357;-71
2022/04/09 11:07:25;;;;;;;8.38;2.00;;;;;;;8.52;46.93;99375.43;1754473;80;26184;-70
2022/04/09 11:09:58;;;;;;;7.45;1.95;;;;;;;8.36;47.20;99367.87;1749791;80;98385;-72
2022/04/09 11:12:45;;;;;;;6.25;1.60;;;;;;;8.58;46.78;99411.63;1714810;81;25376;-72
2022/04/09 11:15:17;;;;;;;9.95;2.42;;;;;;;8.61;47.39;99414.98;1688837;83;28213;-70
2022/04/09 11:17:50;;;;;;;11.28;1.37;;;;;;;8.62;45.48;99407.36;1755241;80;98265;-71
2022/04/09 11:20:23;;;;;;;5.58;1.07;;;;;;;8.64;45.35;99413.48;1753436;80;26572;-71
2022/04/09 11:22:55;;;;;;;10.20;1.75;;;;;;;8.68;46.26;99423.05;1706854;80;97299;-71
2022/04/09 11:25:27;;;;;;;4.03;1.45;;;;;;;8.53;45.08;99421.22;1743286;80;25734;-70
2022/04/09 11:28:17;;;;;;;6.20;1.30;;;;;;;8.40;44.22;99418.34;1731215;80;104824;-70
2022/04/09 11:31:03;;;;;;;7.35;1.60;;;;;;;8.41;44.26;99408.06;1727560;81;27194;-71
2022/04/09 11:33:32;;;;;;;3.45;1.35;;;;;;;8.51;44.79;99432.45;1726217;81;26259;-70
2022/04/09 11:36:02;;;;;;;11.45;2.33;;;;;;;8.75;43.98;99435.13;1729505;81;98621;-70
2022/04/09 11:38:28;;;;;;;4.67;1.10;;;;;;;8.95;43.63;99435.83;1726866;81;25714;-71
2022/04/09 11:40:56;;;;;;;6.12;1.70;;;;;;;9.10;43.83;99430.48;1732048;81;98185;-69
2022/04/09 11:43:24;;;;;;;7.47;1.95;;;;;;;9.24;43.61;99436.38;1731043;81;25743;-70
2022/04/09 11:45:52;;;;;;;6.15;1.40;;;;;;;9.45;43.62;99444.98;1684458;83;98595;-70
2022/04/09 11:48:21;;;;;;;10.10;1.92;;;;;;;9.56;42.57;99455.92;1724177;81;26477;-70